Time;durP1;ratioP1;P1;durP2;ratioP2;P2;SDS_P1;SDS_P2;PMS_P1;PMS_P2;Temp;Humidity;BMP_temperature;BMP_pressure;BME280_temperature;BME280_humidity;BME280_pressure;Samples;Min_cycle;Max_cycle;Signal;HPM_P1;HPM_P2
2023/05/30 00:01:40;;;;;;;9.10;4.20;;;;;;;14.20;50.16;100633.19;130197;1258;114725;-62
2023/05/30 00:04:42;;;;;;;8.60;4.40;;;;;;;14.15;50.55;100639.64;130212;1258;114821;-63
2023/05/30 00:07:44;;;;;;;9.00;5.00;;;;;;;14.07;50.64;100635.03;130199;1270;114668;-62
2023/05/30 00:10:46;;;;;;;10.20;4.60;;;;;;;14.02;50.52;100641.44;129891;1259;114824;-63
2023/05/30 00:13:50;;;;;;;10.10;4.20;;;;;;;13.97;50.71;100642.83;129975;1270;114829;-63
2023/05/30 00:16:53;;;;;;;13.80;4.80;;;;;;;13.92;50.72;100647.41;129983;1270;115289;-63
2023/05/30 00:19:56;;;;;;;11.80;4.50;;;;;;;13.88;51.00;100643.67;129935;1268;114751;-62
2023/05/30 00:22:59;;;;;;;12.50;5.20;;;;;;;13.85;51.12;100643.70;130179;1277;114711;-63
2023/05/30 00:26:03;;;;;;;9.60;4.60;;;;;;;13.80;51.11;100641.27;129928;1270;114734;-62
2023/05/30 00:29:05;;;;;;;11.10;4.90;;;;;;;13.77;51.02;100640.92;130001;1278;114754;-63
2023/05/30 00:32:08;;;;;;;15.00;5.10;;;;;;;13.76;51.24;100639.91;130225;1260;114798;-62
2023/05/30 00:35:10;;;;;;;13.40;4.60;;;;;;;13.74;51.26;100637.48;130129;1261;114731;-62
2023/05/30 00:38:13;;;;;;;11.60;4.90;;;;;;;13.73;51.44;100638.84;130193;1254;114787;-62
2023/05/30 00:41:16;;;;;;;12.70;4.90;;;;;;;13.71;51.33;100635.70;130129;1254;114713;-62
2023/05/30 00:44:19;;;;;;;18.10;4.20;;;;;;;13.70;51.49;100638.45;129960;1255;114812;-62
2023/05/30 00:47:21;;;;;;;9.40;4.00;;;;;;;13.68;51.45;100637.27;129945;1273;114727;-62
2023/05/30 00:50:26;;;;;;;8.80;4.80;;;;;;;13.68;51.49;100639.45;129873;1277;114800;-62
2023/05/30 00:53:28;;;;;;;15.30;4.50;;;;;;;13.66;51.48;100636.13;129868;1277;129244;-62
2023/05/30 00:56:31;;;;;;;12.90;5.00;;;;;;;13.65;51.59;100638.55;129876;1277;114704;-62
2023/05/30 00:59:34;;;;;;;11.70;4.90;;;;;;;13.63;51.49;100633.81;129862;1258;114699;-62
2023/05/30 01:02:38;;;;;;;10.50;4.70;;;;;;;13.62;51.51;100635.29;129740;1271;114741;-62
2023/05/30 01:05:40;;;;;;;12.80;4.10;;;;;;;13.61;51.68;100636.77;129653;1261;114794;-62
2023/05/30 01:08:43;;;;;;;12.20;4.70;;;;;;;13.61;51.60;100638.97;129879;1271;114730;-61
2023/05/30 01:12:04;;;;;;;10.60;4.30;;;;;;;13.59;51.58;100644.60;129920;1277;114818;-61
2023/05/30 01:15:24;;;;;;;9.60;4.80;;;;;;;13.58;51.58;100643.45;129533;1262;115496;-62
2023/05/30 01:18:32;;;;;;;9.00;4.70;;;;;;;13.56;51.86;100644.98;129646;1276;114805;-62
2023/05/30 01:21:37;;;;;;;10.10;4.50;;;;;;;13.55;51.89;100644.33;129768;1263;114656;-62
2023/05/30 01:25:04;;;;;;;12.10;5.00;;;;;;;13.53;51.79;100645.85;129787;1277;114857;-62
2023/05/30 01:28:13;;;;;;;11.70;4.60;;;;;;;13.51;51.83;100650.45;129653;1278;128501;-61
2023/05/30 01:31:15;;;;;;;8.30;4.10;;;;;;;13.50;51.81;100648.69;130168;1278;115234;-62
2023/05/30 01:34:18;;;;;;;9.90;4.50;;;;;;;13.49;51.99;100645.69;129727;1260;114622;-62
2023/05/30 01:37:20;;;;;;;7.80;4.50;;;;;;;13.48;51.99;100645.95;129839;1255;114809;-62
2023/05/30 01:40:27;;;;;;;13.90;4.20;;;;;;;13.46;51.97;100642.50;129790;1274;114750;-62
2023/05/30 01:43:42;;;;;;;10.80;4.80;;;;;;;13.44;51.88;100644.38;129693;1271;116432;-62
2023/05/30 01:46:51;;;;;;;10.50;5.00;;;;;;;13.42;52.03;100647.57;129525;1263;128043;-62
2023/05/30 01:50:13;;;;;;;9.70;4.30;;;;;;;13.39;52.04;100652.02;129801;1278;115166;-61
2023/05/30 01:53:36;;;;;;;10.50;5.20;;;;;;;13.34;52.28;100650.81;129446;1278;114959;-62
2023/05/30 01:56:39;;;;;;;10.80;5.40;;;;;;;13.28;52.31;100650.78;129772;1255;114745;-62
2023/05/30 01:59:42;;;;;;;13.20;5.30;;;;;;;13.24;52.35;100649.23;129692;1275;114790;-62
2023/05/30 02:02:45;;;;;;;10.30;4.70;;;;;;;13.19;52.66;100645.52;129739;1259;115123;-61
2023/05/30 02:05:47;;;;;;;9.90;4.20;;;;;;;13.14;52.65;100647.79;129734;1259;114721;-62
2023/05/30 02:08:50;;;;;;;9.80;3.90;;;;;;;13.10;52.71;100650.73;129864;1255;115110;-61
2023/05/30 02:11:52;;;;;;;9.40;3.70;;;;;;;13.05;52.87;100654.58;129505;1278;115234;-62
2023/05/30 02:14:54;;;;;;;9.20;4.10;;;;;;;12.99;52.78;100659.34;129945;1277;115221;-62
2023/05/30 02:18:00;;;;;;;9.10;4.70;;;;;;;12.96;52.74;100664.58;129823;1256;114735;-62
2023/05/30 02:21:03;;;;;;;9.10;3.80;;;;;;;12.92;53.12;100665.27;127901;1278;2629354;-62
2023/05/30 02:24:05;;;;;;;10.20;4.20;;;;;;;12.88;52.91;100664.08;129641;1264;114841;-62
2023/05/30 02:27:08;;;;;;;16.50;4.50;;;;;;;12.84;53.02;100662.88;129748;1278;114727;-62
2023/05/30 02:30:11;;;;;;;10.00;4.20;;;;;;;12.79;53.37;100665.30;129811;1261;115201;-62
2023/05/30 02:33:14;;;;;;;11.30;4.00;;;;;;;12.73;53.32;100663.97;129829;1258;115184;-62
2023/05/30 02:36:16;;;;;;;13.20;4.30;;;;;;;12.69;53.36;100666.84;130122;1259;114746;-62
2023/05/30 02:39:18;;;;;;;18.60;4.20;;;;;;;12.67;53.18;100668.94;130181;1278;114727;-62
2023/05/30 02:42:21;;;;;;;9.70;4.70;;;;;;;12.65;53.59;100677.09;129797;1256;115134;-62
2023/05/30 02:45:23;;;;;;;13.70;4.50;;;;;;;12.61;53.48;100677.83;130095;1274;114742;-62
2023/05/30 02:48:25;;;;;;;10.60;4.20;;;;;;;12.57;53.51;100677.16;130174;1258;114816;-62
2023/05/30 02:51:27;;;;;;;10.10;4.50;;;;;;;12.52;54.04;100678.83;129912;1254;115339;-62
2023/05/30 02:54:31;;;;;;;12.50;4.80;;;;;;;12.46;54.18;100678.61;130123;1258;115427;-63
2023/05/30 02:57:35;;;;;;;16.40;4.20;;;;;;;12.40;54.25;100679.30;130072;1254;114704;-62
2023/05/30 03:00:38;;;;;;;16.90;4.10;;;;;;;12.33;53.85;100678.55;129776;1277;114707;-62
2023/05/30 03:03:41;;;;;;;10.10;3.90;;;;;;;12.27;53.84;100684.96;129844;1271;114815;-62
2023/05/30 03:06:44;;;;;;;11.50;4.40;;;;;;;12.22;54.23;100690.58;129900;1258;114706;-63
2023/05/30 03:09:46;;;;;;;13.00;4.40;;;;;;;12.19;54.41;100697.91;130300;1258;114822;-63
2023/05/30 03:12:48;;;;;;;9.80;4.00;;;;;;;12.15;54.63;100702.20;129869;1261;114896;-63
2023/05/30 03:15:50;;;;;;;9.90;4.00;;;;;;;12.13;54.41;100702.67;129752;1256;115137;-64
2023/05/30 03:18:53;;;;;;;10.90;4.00;;;;;;;12.10;54.95;100707.11;129786;1270;114729;-65
2023/05/30 03:21:56;;;;;;;13.00;3.90;;;;;;;12.08;54.76;100709.56;129826;1260;114772;-64
2023/05/30 03:24:58;;;;;;;8.70;4.00;;;;;;;12.06;54.96;100707.81;129551;1278;128432;-64
2023/05/30 03:28:05;;;;;;;10.60;4.20;;;;;;;12.06;54.96;100709.11;129844;1255;114776;-65
2023/05/30 03:31:08;;;;;;;9.80;3.80;;;;;;;12.06;55.46;100707.48;129953;1261;114856;-65
2023/05/30 03:34:10;;;;;;;11.10;3.90;;;;;;;12.08;55.28;100707.02;129736;1256;115324;-64
2023/05/30 03:37:13;;;;;;;13.90;3.80;;;;;;;12.09;55.74;100705.34;129776;1260;114726;-65
2023/05/30 03:40:15;;;;;;;11.10;4.20;;;;;;;12.10;55.47;100707.08;130061;1261;114704;-65
2023/05/30 03:43:18;;;;;;;11.60;4.20;;;;;;;12.14;55.41;100714.98;130046;1277;115180;-65
2023/05/30 03:46:21;;;;;;;8.80;3.80;;;;;;;12.18;55.22;100714.79;130015;1275;114707;-65
2023/05/30 03:49:24;;;;;;;14.50;4.30;;;;;;;12.21;55.13;100718.55;130065;1255;114810;-63
2023/05/30 03:52:26;;;;;;;7.70;3.80;;;;;;;12.26;55.32;100720.08;130078;1258;114735;-64
2023/05/30 03:55:29;;;;;;;14.60;4.10;;;;;;;12.32;55.62;100724.45;130098;1277;115432;-66
2023/05/30 03:58:31;;;;;;;9.60;3.90;;;;;;;12.39;55.66;100731.65;129704;1258;114826;-66
2023/05/30 04:01:34;;;;;;;16.30;4.00;;;;;;;12.44;55.68;100732.97;129754;1258;114809;-65
2023/05/30 04:04:37;;;;;;;9.00;4.00;;;;;;;12.51;55.64;100736.42;130062;1277;114741;-63
2023/05/30 04:07:40;;;;;;;14.60;4.10;;;;;;;12.57;55.55;100732.70;130347;1277;114723;-65
2023/05/30 04:10:42;;;;;;;12.10;4.20;;;;;;;12.63;55.69;100726.84;130363;1277;114707;-62
2023/05/30 04:13:45;;;;;;;11.40;4.40;;;;;;;12.70;55.34;100730.27;129950;1261;114616;-62
2023/05/30 04:16:47;;;;;;;12.90;4.40;;;;;;;12.77;55.34;100738.70;129938;1277;115132;-62
2023/05/30 04:19:51;;;;;;;9.30;3.90;;;;;;;12.83;55.27;100736.77;129928;1258;114819;-62
2023/05/30 04:22:53;;;;;;;10.00;3.80;;;;;;;12.91;55.46;100744.61;130174;1277;114723;-61
2023/05/30 04:25:57;;;;;;;12.90;3.80;;;;;;;12.98;55.50;100749.78;130271;1254;114792;-62
2023/05/30 04:28:59;;;;;;;8.10;3.30;;;;;;;13.06;55.34;100753.33;130098;1277;114737;-62
2023/05/30 04:32:02;;;;;;;10.90;3.70;;;;;;;13.14;55.38;100756.69;130123;1273;115149;-62
2023/05/30 04:35:05;;;;;;;9.50;3.90;;;;;;;13.24;55.38;100760.45;130209;1254;115241;-62
2023/05/30 04:38:09;;;;;;;11.20;4.20;;;;;;;13.70;55.66;100763.54;129773;1272;114813;-62
2023/05/30 04:41:18;;;;;;;12.40;4.30;;;;;;;14.73;55.60;100760.73;129881;1261;127846;-62
2023/05/30 04:44:22;;;;;;;12.30;4.80;;;;;;;15.98;54.71;100756.48;129891;1270;115296;-63
2023/05/30 04:47:28;;;;;;;14.30;4.20;;;;;;;17.19;53.50;100752.56;129840;1255;115171;-63
2023/05/30 04:50:30;;;;;;;10.40;4.40;;;;;;;18.35;52.22;100752.73;129845;1261;114791;-62
2023/05/30 04:53:32;;;;;;;16.50;4.10;;;;;;;19.23;51.01;100747.27;130064;1258;114752;-63
2023/05/30 04:56:35;;;;;;;8.80;4.00;;;;;;;20.12;49.91;100748.33;129998;1261;114722;-63
2023/05/30 04:59:37;;;;;;;9.30;4.00;;;;;;;21.06;49.08;100753.17;130165;1278;128917;-62
2023/05/30 05:02:40;;;;;;;9.60;3.70;;;;;;;22.11;47.93;100756.30;130070;1259;114710;-63
2023/05/30 05:05:42;;;;;;;12.30;4.40;;;;;;;23.13;46.86;100753.75;129986;1256;115355;-63
2023/05/30 05:08:45;;;;;;;10.90;4.40;;;;;;;24.06;45.42;100755.84;130013;1255;114829;-61
2023/05/30 05:11:47;;;;;;;11.70;4.60;;;;;;;24.71;43.93;100755.71;129539;1263;114935;-63
2023/05/30 05:14:54;;;;;;;11.40;4.50;;;;;;;25.37;42.74;100757.33;130011;1262;114817;-61
2023/05/30 05:17:56;;;;;;;12.20;5.80;;;;;;;25.99;41.83;100755.17;129695;1278;120477;-60
2023/05/30 05:20:58;;;;;;;8.10;4.00;;;;;;;26.42;40.37;100758.08;129769;1278;114749;-63
2023/05/30 05:24:01;;;;;;;11.50;4.00;;;;;;;26.70;39.40;100763.92;130273;1274;114812;-63
2023/05/30 05:27:03;;;;;;;10.60;4.00;;;;;;;26.97;38.28;100767.23;130101;1261;114745;-62
2023/05/30 05:30:07;;;;;;;13.00;4.30;;;;;;;27.24;37.53;100769.89;129837;1263;114892;-62
2023/05/30 05:33:09;;;;;;;9.30;3.60;;;;;;;27.61;37.14;100768.98;130101;1255;114815;-63
2023/05/30 05:36:12;;;;;;;8.60;3.80;;;;;;;27.86;36.07;100773.02;129788;1259;114852;-63
2023/05/30 05:39:14;;;;;;;10.10;3.80;;;;;;;27.92;35.63;100776.84;130052;1260;115349;-63
2023/05/30 05:42:17;;;;;;;9.50;3.70;;;;;;;28.14;35.28;100775.47;130191;1271;114806;-64
2023/05/30 05:45:19;;;;;;;9.80;4.00;;;;;;;28.35;34.51;100776.16;130410;1256;114787;-64
2023/05/30 05:48:21;;;;;;;9.90;4.10;;;;;;;28.44;33.93;100777.84;130415;1256;114717;-66
2023/05/30 05:51:23;;;;;;;9.10;4.10;;;;;;;28.59;33.65;100773.28;130404;1258;115098;-64
2023/05/30 05:54:25;;;;;;;10.00;3.90;;;;;;;28.74;33.01;100772.02;130094;1272;114719;-62
2023/05/30 05:57:27;;;;;;;11.10;3.80;;;;;;;28.88;32.81;100774.12;129666;1264;115279;-62
2023/05/30 06:00:30;;;;;;;8.00;3.70;;;;;;;29.08;32.38;100772.80;129662;1259;120128;-63
2023/05/30 06:03:32;;;;;;;10.50;4.40;;;;;;;29.25;32.04;100774.02;129711;1261;114781;-63
2023/05/30 06:06:35;;;;;;;9.50;4.30;;;;;;;29.35;31.77;100774.90;129986;1259;114739;-64
2023/05/30 06:09:37;;;;;;;7.30;3.30;;;;;;;29.47;31.31;100780.36;130132;1274;115210;-65
2023/05/30 06:12:39;;;;;;;12.30;4.30;;;;;;;29.48;30.82;100788.23;129846;1255;114939;-64
2023/05/30 06:15:41;;;;;;;11.00;4.10;;;;;;;29.54;30.59;100788.42;129966;1274;115220;-63
2023/05/30 06:18:43;;;;;;;14.10;4.40;;;;;;;29.53;30.30;100796.05;130077;1271;114723;-63
2023/05/30 06:21:45;;;;;;;12.40;3.80;;;;;;;29.35;30.34;100796.09;129756;1257;120264;-63
2023/05/30 06:24:48;;;;;;;8.90;3.90;;;;;;;29.16;30.11;100798.70;129632;1255;114769;-63
2023/05/30 06:27:54;;;;;;;6.30;3.10;;;;;;;28.87;29.73;100805.45;129723;1258;115143;-63
2023/05/30 06:30:57;;;;;;;8.20;4.30;;;;;;;28.61;29.77;100806.65;129741;1267;114845;-63
2023/05/30 06:33:59;;;;;;;9.00;4.00;;;;;;;28.37;29.74;100807.64;129591;1260;114784;-63
2023/05/30 06:37:01;;;;;;;8.90;3.60;;;;;;;28.17;29.87;100811.59;130065;1278;114698;-63
2023/05/30 06:40:04;;;;;;;14.80;4.40;;;;;;;28.05;30.00;100815.02;130171;1260;120343;-63
2023/05/30 06:43:06;;;;;;;6.50;3.20;;;;;;;28.09;30.29;100818.83;129637;1258;114734;-63
2023/05/30 06:46:09;;;;;;;9.60;4.20;;;;;;;28.23;30.22;100816.77;129840;1258;115136;-63
2023/05/30 06:49:11;;;;;;;11.10;3.90;;;;;;;28.38;29.85;100821.34;129707;1262;115185;-63
2023/05/30 06:52:13;;;;;;;11.50;3.80;;;;;;;28.40;29.87;100824.39;129734;1258;114730;-63
2023/05/30 06:55:15;;;;;;;16.70;4.40;;;;;;;28.43;29.74;100827.89;130006;1277;114807;-63
2023/05/30 06:58:18;;;;;;;9.50;3.60;;;;;;;28.48;29.61;100830.63;129771;1277;115313;-63
2023/05/30 07:01:20;;;;;;;10.70;4.40;;;;;;;28.67;29.54;100831.58;129799;1274;120280;-62
2023/05/30 07:04:23;;;;;;;7.90;3.90;;;;;;;28.89;29.30;100831.39;129815;1277;114716;-63
2023/05/30 07:07:25;;;;;;;9.50;4.30;;;;;;;29.06;29.12;100832.66;129782;1258;114743;-62
2023/05/30 07:10:27;;;;;;;8.80;4.10;;;;;;;29.16;29.01;100832.79;129886;1255;114765;-63
2023/05/30 07:13:30;;;;;;;8.50;3.60;;;;;;;29.12;28.84;100836.20;129769;1277;114709;-63
2023/05/30 07:16:32;;;;;;;12.60;4.10;;;;;;;29.29;29.03;100838.36;129774;1258;114720;-64
2023/05/30 07:19:36;;;;;;;10.60;4.00;;;;;;;29.48;28.93;100837.92;129653;1261;114868;-63
2023/05/30 07:22:38;;;;;;;9.30;3.40;;;;;;;29.60;28.50;100840.88;129768;1271;114729;-62
2023/05/30 07:25:40;;;;;;;7.00;3.50;;;;;;;29.70;28.27;100843.19;129866;1274;114811;-62
2023/05/30 07:28:43;;;;;;;9.10;3.50;;;;;;;29.89;28.26;100843.04;129568;1262;114901;-65
2023/05/30 07:31:46;;;;;;;6.70;3.10;;;;;;;30.04;28.24;100841.73;130431;1259;115351;-64
2023/05/30 07:34:48;;;;;;;8.00;3.40;;;;;;;30.27;27.83;100842.93;129966;1274;115084;-64
2023/05/30 07:37:52;;;;;;;8.10;3.30;;;;;;;30.37;27.46;100845.57;130120;1258;115080;-64
2023/05/30 07:40:54;;;;;;;6.60;3.20;;;;;;;30.35;27.26;100847.30;130044;1272;114679;-64
2023/05/30 07:43:57;;;;;;;8.30;3.10;;;;;;;30.32;27.16;100849.30;129987;1256;114809;-64
2023/05/30 07:46:59;;;;;;;8.20;2.90;;;;;;;30.27;26.87;100846.27;129775;1259;114822;-65
2023/05/30 07:50:01;;;;;;;9.20;3.20;;;;;;;30.21;26.92;100843.75;130035;1264;114813;-66
2023/05/30 07:53:04;;;;;;;6.40;2.90;;;;;;;30.33;26.63;100845.32;130254;1258;115435;-65
2023/05/30 07:56:06;;;;;;;4.50;2.80;;;;;;;30.50;26.48;100845.52;129987;1267;114714;-66
2023/05/30 07:59:08;;;;;;;6.40;2.40;;;;;;;30.52;25.96;100842.64;130118;1271;114728;-65
2023/05/30 08:02:10;;;;;;;11.30;2.70;;;;;;;30.43;26.00;100840.92;130084;1258;114790;-65
2023/05/30 08:05:12;;;;;;;9.80;3.40;;;;;;;30.47;25.92;100841.73;129569;1272;114714;-63
2023/05/30 08:08:14;;;;;;;4.00;2.20;;;;;;;30.52;25.77;100840.41;130057;1262;114869;-64
2023/05/30 08:11:17;;;;;;;9.60;3.20;;;;;;;30.58;25.60;100834.40;129614;1277;114729;-64
2023/05/30 08:14:19;;;;;;;10.20;3.30;;;;;;;30.64;25.49;100835.10;129714;1270;114746;-64
2023/05/30 08:17:23;;;;;;;12.20;2.80;;;;;;;30.62;25.51;100838.10;129659;1274;114808;-63
2023/05/30 08:20:26;;;;;;;7.60;2.50;;;;;;;30.43;25.28;100835.61;129642;1258;115347;-64
2023/05/30 08:23:28;;;;;;;8.20;2.80;;;;;;;30.36;25.72;100832.08;129735;1261;114784;-64
2023/05/30 08:26:31;;;;;;;5.30;2.70;;;;;;;30.40;25.45;100830.81;129595;1254;114920;-63
2023/05/30 08:29:34;;;;;;;9.70;2.80;;;;;;;30.31;25.06;100832.21;129668;1277;114797;-64
2023/05/30 08:32:37;;;;;;;5.70;2.50;;;;;;;29.85;24.67;100834.52;129657;1269;114729;-65
2023/05/30 08:35:40;;;;;;;7.10;2.90;;;;;;;29.39;24.81;100833.52;129668;1272;115390;-64
2023/05/30 08:38:42;;;;;;;6.20;2.60;;;;;;;29.18;25.05;100832.45;129642;1275;114704;-64
2023/05/30 08:41:44;;;;;;;9.90;2.80;;;;;;;28.95;25.13;100833.81;129620;1258;114812;-62
2023/05/30 08:44:47;;;;;;;8.50;2.80;;;;;;;28.76;25.18;100837.25;129496;1264;114829;-62
2023/05/30 08:47:53;;;;;;;8.70;2.90;;;;;;;28.76;25.44;100834.56;129841;1257;114788;-61
2023/05/30 08:50:57;;;;;;;8.70;2.60;;;;;;;28.80;25.47;100829.69;129672;1272;114825;-63
2023/05/30 08:54:02;;;;;;;7.50;3.10;;;;;;;28.71;25.28;100835.23;129781;1277;119416;-63
2023/05/30 08:57:09;;;;;;;9.70;3.00;;;;;;;28.41;25.08;100838.11;129589;1259;114968;-63
2023/05/30 09:00:14;;;;;;;10.90;2.80;;;;;;;28.28;25.78;100839.73;129403;1270;115343;-64
2023/05/30 09:03:16;;;;;;;7.30;2.40;;;;;;;28.26;25.59;100840.20;129497;1264;115081;-64
2023/05/30 09:06:20;;;;;;;12.40;2.80;;;;;;;28.08;25.68;100841.52;129734;1260;114822;-62
2023/05/30 09:09:23;;;;;;;9.90;3.10;;;;;;;27.97;25.78;100844.27;129505;1259;114840;-62
2023/05/30 09:12:27;;;;;;;7.20;3.00;;;;;;;27.87;25.83;100843.30;129491;1276;114790;-64
2023/05/30 09:15:33;;;;;;;8.00;3.10;;;;;;;27.82;25.68;100846.69;129639;1258;114740;-62
2023/05/30 09:18:37;;;;;;;7.70;2.90;;;;;;;27.65;25.68;100849.31;129762;1274;114746;-62
2023/05/30 09:21:41;;;;;;;12.40;3.00;;;;;;;27.41;25.62;100850.31;129772;1271;114730;-63
2023/05/30 09:25:05;;;;;;;8.60;3.00;;;;;;;27.18;26.03;100850.58;129714;1277;120449;-64
2023/05/30 09:28:09;;;;;;;8.00;2.60;;;;;;;27.11;26.14;100848.23;129620;1274;114802;-63
2023/05/30 09:31:14;;;;;;;7.70;2.60;;;;;;;26.97;25.90;100854.48;129783;1259;115112;-65
2023/05/30 09:34:20;;;;;;;7.50;3.10;;;;;;;26.80;26.17;100846.79;129686;1261;114791;-65
2023/05/30 09:37:22;;;;;;;9.00;2.90;;;;;;;26.72;26.44;100846.45;130296;1259;115070;-65
2023/05/30 09:40:25;;;;;;;7.30;3.10;;;;;;;26.54;26.78;100845.71;130053;1272;114735;-67
2023/05/30 09:43:34;;;;;;;7.20;3.20;;;;;;;26.42;26.76;100845.02;130104;1256;115492;-65
2023/05/30 09:46:37;;;;;;;8.90;2.60;;;;;;;26.29;26.56;100845.58;129907;1258;115143;-64
2023/05/30 09:49:40;;;;;;;6.10;2.50;;;;;;;26.05;26.59;100845.32;130180;1258;114786;-65
2023/05/30 09:52:43;;;;;;;3.70;2.20;;;;;;;25.79;26.33;100848.02;129641;1274;115170;-64
2023/05/30 09:55:45;;;;;;;6.40;2.10;;;;;;;25.31;25.99;100849.88;130180;1274;115260;-66
2023/05/30 09:58:47;;;;;;;7.40;3.20;;;;;;;24.84;26.45;100852.92;130040;1260;114765;-65
2023/05/30 10:01:49;;;;;;;5.40;2.40;;;;;;;24.54;26.64;100852.95;129876;1256;128408;-65
2023/05/30 10:04:51;;;;;;;6.50;2.70;;;;;;;24.19;26.54;100856.05;129638;1274;114718;-64
2023/05/30 10:07:56;;;;;;;9.30;2.90;;;;;;;23.92;27.31;100858.83;129803;1261;114856;-64
2023/05/30 10:10:58;;;;;;;8.00;2.50;;;;;;;23.79;27.29;100858.33;129960;1260;114876;-65
2023/05/30 10:14:00;;;;;;;9.10;2.80;;;;;;;23.60;27.14;100863.48;130164;1258;115399;-64
2023/05/30 10:17:09;;;;;;;9.80;2.30;;;;;;;23.37;27.23;100864.60;129730;1271;114766;-64
2023/05/30 10:20:13;;;;;;;7.60;2.40;;;;;;;23.18;26.79;100863.02;129518;1277;127857;-64
2023/05/30 10:23:16;;;;;;;;;;;;;;;22.84;26.28;100863.05;130135;1257;114769;-68
2023/05/30 10:26:18;;;;;;;7.20;2.00;;;;;;;22.59;27.05;100862.82;130060;1261;114700;-65
2023/05/30 10:29:23;;;;;;;5.80;2.20;;;;;;;22.41;27.33;100861.01;130006;1274;114724;-68
2023/05/30 10:32:25;;;;;;;;;;;;;;;22.27;27.35;100863.89;130321;1268;114706;-68
2023/05/30 10:35:28;;;;;;;7.80;2.40;;;;;;;22.02;27.37;100861.36;130130;1269;114821;-65
2023/05/30 10:38:38;;;;;;;4.70;2.00;;;;;;;21.89;27.44;100855.62;130481;1274;114806;-65
2023/05/30 10:42:03;;;;;;;7.00;2.30;;;;;;;21.73;27.51;100861.20;129968;1260;114856;-63
2023/05/30 10:45:16;;;;;;;;;;;;;;;21.55;27.34;100865.79;129848;1260;114804;-68
2023/05/30 10:48:33;;;;;;;5.50;2.50;;;;;;;21.45;27.59;100861.54;129857;1261;115479;-64
2023/05/30 10:51:58;;;;;;;6.90;2.70;;;;;;;21.38;27.84;100859.83;129868;1278;129959;-66
2023/05/30 10:55:00;;;;;;;7.10;2.60;;;;;;;21.24;28.30;100860.42;129512;1277;116434;-60
2023/05/30 10:58:41;;;;;;;4.20;1.90;;;;;;;21.19;28.68;100862.18;130000;1259;114724;-60
2023/05/30 11:02:06;;;;;;;5.30;2.40;;;;;;;21.12;28.72;100855.98;130062;1278;114733;-60
2023/05/30 11:05:10;;;;;;;7.50;2.40;;;;;;;21.14;28.80;100859.66;129958;1278;115586;-60
2023/05/30 11:08:15;;;;;;;7.60;2.20;;;;;;;21.10;28.64;100860.55;129718;1261;127122;-60
2023/05/30 11:11:18;;;;;;;6.40;2.40;;;;;;;21.06;28.96;100855.06;130013;1260;115166;-61
2023/05/30 11:14:25;;;;;;;8.00;2.90;;;;;;;21.04;28.58;100852.32;129595;1260;114725;-60
2023/05/30 11:17:33;;;;;;;7.40;2.40;;;;;;;21.05;29.11;100852.30;129568;1261;114797;-60
2023/05/30 11:20:48;;;;;;;11.50;2.50;;;;;;;21.08;29.28;100852.21;129756;1261;114711;-60
2023/05/30 11:24:00;;;;;;;6.40;2.50;;;;;;;21.11;29.45;100850.64;129466;1256;128092;-66
2023/05/30 11:27:07;;;;;;;5.20;1.90;;;;;;;21.17;29.40;100853.48;129995;1269;114723;-70
2023/05/30 11:30:29;;;;;;;5.70;2.10;;;;;;;21.27;29.57;100851.87;130110;1261;114714;-69
2023/05/30 11:33:32;;;;;;;8.90;2.30;;;;;;;21.39;29.31;100860.98;130039;1261;115194;-69
2023/05/30 11:36:37;;;;;;;6.80;2.20;;;;;;;21.41;28.86;100861.56;129946;1261;114739;-69
2023/05/30 11:39:39;;;;;;;9.00;2.60;;;;;;;21.38;29.13;100862.92;130227;1257;128700;-69
2023/05/30 11:42:41;;;;;;;12.10;2.90;;;;;;;21.27;28.93;100862.17;130152;1269;115255;-69
2023/05/30 11:45:53;;;;;;;4.70;2.30;;;;;;;21.23;28.86;100865.63;130132;1261;115210;-69
2023/05/30 11:48:57;;;;;;;6.20;2.40;;;;;;;21.12;28.54;100860.60;130265;1262;115151;-69
2023/05/30 11:51:59;;;;;;;8.90;2.70;;;;;;;21.10;28.96;100862.38;130187;1262;114718;-69
2023/05/30 11:55:02;;;;;;;8.00;2.80;;;;;;;21.05;28.95;100865.31;130081;1262;114808;-69
2023/05/30 11:58:04;;;;;;;4.60;2.10;;;;;;;21.05;29.14;100869.33;129945;1261;114794;-69
2023/05/30 12:01:07;;;;;;;9.00;2.50;;;;;;;21.07;29.00;100870.24;130124;1278;114732;-68
2023/05/30 12:04:09;;;;;;;7.60;2.60;;;;;;;21.11;29.32;100860.66;129794;1257;116498;-69
2023/05/30 12:07:13;;;;;;;12.60;3.10;;;;;;;21.17;29.14;100853.95;130021;1269;115313;-69
2023/05/30 12:10:15;;;;;;;8.80;2.20;;;;;;;21.22;29.35;100852.65;130229;1261;114772;-69
2023/05/30 12:13:20;;;;;;;6.70;2.30;;;;;;;21.21;29.09;100850.92;130212;1269;114758;-69
2023/05/30 12:16:23;;;;;;;7.10;2.40;;;;;;;21.09;28.52;100853.21;129891;1261;126905;-68
2023/05/30 12:19:31;;;;;;;8.00;2.20;;;;;;;20.99;28.91;100859.50;130991;1261;114820;-68
2023/05/30 12:22:34;;;;;;;5.20;2.30;;;;;;;20.92;29.08;100857.16;131637;1260;115047;-68
2023/05/30 12:25:37;;;;;;;6.20;2.30;;;;;;;20.88;29.08;100852.73;131621;1260;114816;-69
2023/05/30 12:28:47;;;;;;;8.20;2.30;;;;;;;20.87;29.35;100852.31;130201;1278;114731;-70
2023/05/30 12:31:49;;;;;;;5.90;2.60;;;;;;;20.89;29.55;100853.06;130166;1271;127844;-68
2023/05/30 12:34:53;;;;;;;8.30;2.40;;;;;;;20.92;29.78;100855.14;130289;1275;114703;-69
2023/05/30 12:37:58;;;;;;;6.90;2.30;;;;;;;20.98;29.72;100856.29;130268;1278;115368;-68
2023/05/30 12:41:00;;;;;;;5.80;2.50;;;;;;;21.01;29.75;100851.58;130241;1260;114716;-69
2023/05/30 12:44:02;;;;;;;7.10;2.40;;;;;;;21.02;29.49;100850.89;130115;1260;114815;-68
2023/05/30 12:47:04;;;;;;;8.60;2.40;;;;;;;21.00;29.28;100849.27;130142;1261;114764;-68
2023/05/30 12:50:07;;;;;;;5.20;2.30;;;;;;;20.95;29.43;100843.69;129876;1272;127962;-68
2023/05/30 12:53:10;;;;;;;6.20;2.60;;;;;;;20.94;29.77;100848.25;130363;1278;114733;-69
2023/05/30 12:56:13;;;;;;;9.50;3.30;;;;;;;20.94;29.73;100853.38;129971;1278;114739;-69
2023/05/30 12:59:16;;;;;;;7.80;2.70;;;;;;;20.92;29.40;100848.77;130116;1277;115415;-69
2023/05/30 13:02:20;;;;;;;5.50;2.30;;;;;;;20.85;29.46;100847.57;130042;1267;114981;-69
2023/05/30 13:05:22;;;;;;;7.60;2.90;;;;;;;20.83;29.64;100845.04;130158;1277;114811;-69
2023/05/30 13:08:25;;;;;;;4.80;2.10;;;;;;;20.84;29.90;100848.09;130142;1259;114744;-69
2023/05/30 13:11:28;;;;;;;8.20;2.60;;;;;;;20.85;30.19;100846.48;130142;1268;114755;-69
2023/05/30 13:14:31;;;;;;;11.50;2.50;;;;;;;20.89;30.46;100848.50;130141;1277;114729;-68
2023/05/30 13:17:33;;;;;;;7.40;2.60;;;;;;;20.92;30.37;100847.48;130068;1255;115121;-69
2023/05/30 13:20:36;;;;;;;5.10;2.40;;;;;;;20.92;30.49;100841.33;130094;1261;114821;-69
2023/05/30 13:23:38;;;;;;;8.40;3.20;;;;;;;20.96;30.70;100841.05;130123;1267;114692;-69
2023/05/30 13:26:40;;;;;;;9.70;2.40;;;;;;;21.00;30.70;100844.36;130202;1277;114772;-70
2023/05/30 13:29:44;;;;;;;6.60;2.10;;;;;;;21.00;30.41;100850.17;130041;1277;115150;-69
2023/05/30 13:32:47;;;;;;;7.40;2.70;;;;;;;20.96;30.37;100849.39;130187;1266;115212;-69
2023/05/30 13:35:49;;;;;;;10.60;2.50;;;;;;;20.98;30.35;100849.02;130193;1259;116005;-69
2023/05/30 13:38:53;;;;;;;8.90;2.50;;;;;;;20.98;30.22;100842.13;130207;1267;114952;-69
2023/05/30 13:41:55;;;;;;;9.40;2.50;;;;;;;20.99;30.25;100840.46;130065;1260;114722;-69
2023/05/30 13:44:58;;;;;;;6.70;2.90;;;;;;;20.99;30.21;100841.85;130163;1260;114791;-71
2023/05/30 13:48:00;;;;;;;5.40;2.80;;;;;;;20.94;29.97;100833.89;129976;1254;116376;-69
2023/05/30 13:51:04;;;;;;;9.60;2.40;;;;;;;20.94;30.21;100829.72;130186;1260;114730;-70
2023/05/30 13:54:06;;;;;;;9.20;2.70;;;;;;;20.96;30.61;100825.77;129974;1257;114877;-69